sensor_id;sensor_type;location;lat;lon;timestamp;P1;durP1;ratioP1;P2;durP2;ratioP2
6109;SDS011;3085;49.444;11.054;2024-01-30T00:00:05;12.23;;;6.77;;
6109;SDS011;3085;49.444;11.054;2024-01-30T00:02:33;14.50;;;6.47;;
6109;SDS011;3085;49.444;11.054;2024-01-30T00:05:00;16.87;;;6.67;;
6109;SDS011;3085;49.444;11.054;2024-01-30T00:07:29;14.77;;;5.80;;
6109;SDS011;3085;49.444;11.054;2024-01-30T00:09:56;8.90;;;5.50;;
6109;SDS011;3085;49.444;11.054;2024-01-30T00:12:24;12.37;;;5.53;;
6109;SDS011;3085;49.444;11.054;2024-01-30T00:14:51;15.07;;;7.40;;
6109;SDS011;3085;49.444;11.054;2024-01-30T00:17:18;19.47;;;6.27;;
6109;SDS011;3085;49.444;11.054;2024-01-30T00:19:45;13.63;;;6.40;;
6109;SDS011;3085;49.444;11.054;2024-01-30T00:22:12;15.10;;;7.17;;
6109;SDS011;3085;49.444;11.054;2024-01-30T00:24:40;15.63;;;7.50;;
6109;SDS011;3085;49.444;11.054;2024-01-30T00:27:07;25.27;;;7.07;;
6109;SDS011;3085;49.444;11.054;2024-01-30T00:29:34;18.67;;;7.23;;
6109;SDS011;3085;49.444;11.054;2024-01-30T00:32:01;12.93;;;6.60;;
6109;SDS011;3085;49.444;11.054;2024-01-30T00:34:27;12.30;;;5.33;;
6109;SDS011;3085;49.444;11.054;2024-01-30T00:36:54;15.37;;;5.80;;
6109;SDS011;3085;49.444;11.054;2024-01-30T00:39:21;14.07;;;6.17;;
6109;SDS011;3085;49.444;11.054;2024-01-30T00:41:49;21.93;;;6.70;;
6109;SDS011;3085;49.444;11.054;2024-01-30T00:44:16;15.57;;;6.20;;
6109;SDS011;3085;49.444;11.054;2024-01-30T00:46:43;16.93;;;5.87;;
6109;SDS011;3085;49.444;11.054;2024-01-30T00:49:10;13.10;;;4.63;;
6109;SDS011;3085;49.444;11.054;2024-01-30T00:51:37;13.03;;;6.20;;
6109;SDS011;3085;49.444;11.054;2024-01-30T00:54:03;11.47;;;6.30;;
6109;SDS011;3085;49.444;11.054;2024-01-30T00:56:31;13.90;;;5.33;;
6109;SDS011;3085;49.444;11.054;2024-01-30T00:58:59;15.03;;;6.17;;
6109;SDS011;3085;49.444;11.054;2024-01-30T01:01:26;24.93;;;6.90;;
6109;SDS011;3085;49.444;11.054;2024-01-30T01:03:53;11.63;;;5.53;;
6109;SDS011;3085;49.444;11.054;2024-01-30T01:06:19;10.10;;;4.63;;
6109;SDS011;3085;49.444;11.054;2024-01-30T01:08:46;13.43;;;5.20;;
6109;SDS011;3085;49.444;11.054;2024-01-30T01:11:13;10.57;;;5.73;;
6109;SDS011;3085;49.444;11.054;2024-01-30T01:13:39;13.83;;;6.30;;
6109;SDS011;3085;49.444;11.054;2024-01-30T01:16:08;9.13;;;4.93;;
6109;SDS011;3085;49.444;11.054;2024-01-30T01:18:34;15.87;;;6.47;;
6109;SDS011;3085;49.444;11.054;2024-01-30T01:21:01;16.73;;;5.23;;
6109;SDS011;3085;49.444;11.054;2024-01-30T01:23:28;9.87;;;5.17;;
6109;SDS011;3085;49.444;11.054;2024-01-30T01:25:54;9.20;;;4.60;;
6109;SDS011;3085;49.444;11.054;2024-01-30T01:28:21;15.10;;;5.47;;
6109;SDS011;3085;49.444;11.054;2024-01-30T01:30:48;8.13;;;4.60;;
6109;SDS011;3085;49.444;11.054;2024-01-30T01:33:16;22.07;;;5.80;;
6109;SDS011;3085;49.444;11.054;2024-01-30T01:35:43;9.27;;;5.10;;
6109;SDS011;3085;49.444;11.054;2024-01-30T01:38:10;9.77;;;5.40;;
6109;SDS011;3085;49.444;11.054;2024-01-30T01:40:37;8.63;;;4.43;;
6109;SDS011;3085;49.444;11.054;2024-01-30T01:43:05;12.73;;;5.50;;
6109;SDS011;3085;49.444;11.054;2024-01-30T01:45:32;14.33;;;5.80;;
6109;SDS011;3085;49.444;11.054;2024-01-30T01:47:59;10.83;;;4.30;;
6109;SDS011;3085;49.444;11.054;2024-01-30T01:50:27;9.57;;;5.00;;
6109;SDS011;3085;49.444;11.054;2024-01-30T01:52:54;11.67;;;4.30;;
6109;SDS011;3085;49.444;11.054;2024-01-30T01:55:21;8.60;;;4.73;;
6109;SDS011;3085;49.444;11.054;2024-01-30T01:57:50;15.23;;;4.87;;
6109;SDS011;3085;49.444;11.054;2024-01-30T02:00:18;11.30;;;4.90;;
6109;SDS011;3085;49.444;11.054;2024-01-30T02:02:46;12.70;;;5.73;;
6109;SDS011;3085;49.444;11.054;2024-01-30T02:05:13;10.83;;;5.23;;
6109;SDS011;3085;49.444;11.054;2024-01-30T02:07:42;10.70;;;5.40;;
6109;SDS011;3085;49.444;11.054;2024-01-30T02:10:09;14.10;;;5.90;;
6109;SDS011;3085;49.444;11.054;2024-01-30T02:12:36;12.93;;;4.57;;
6109;SDS011;3085;49.444;11.054;2024-01-30T02:15:03;15.20;;;7.40;;
6109;SDS011;3085;49.444;11.054;2024-01-30T02:17:32;7.30;;;4.97;;
6109;SDS011;3085;49.444;11.054;2024-01-30T02:19:59;7.30;;;4.10;;
6109;SDS011;3085;49.444;11.054;2024-01-30T02:22:27;7.50;;;4.27;;
6109;SDS011;3085;49.444;11.054;2024-01-30T02:24:54;8.50;;;4.93;;
6109;SDS011;3085;49.444;11.054;2024-01-30T02:27:20;15.83;;;4.70;;
6109;SDS011;3085;49.444;11.054;2024-01-30T02:29:47;9.77;;;4.97;;
6109;SDS011;3085;49.444;11.054;2024-01-30T02:32:14;8.77;;;4.47;;
6109;SDS011;3085;49.444;11.054;2024-01-30T02:34:41;7.97;;;4.20;;
6109;SDS011;3085;49.444;11.054;2024-01-30T02:37:07;24.87;;;5.33;;
6109;SDS011;3085;49.444;11.054;2024-01-30T02:39:35;9.53;;;4.30;;
6109;SDS011;3085;49.444;11.054;2024-01-30T02:42:02;14.23;;;5.30;;
6109;SDS011;3085;49.444;11.054;2024-01-30T02:44:29;7.70;;;4.10;;
6109;SDS011;3085;49.444;11.054;2024-01-30T02:46:56;7.40;;;4.70;;
6109;SDS011;3085;49.444;11.054;2024-01-30T02:49:22;4.40;;;3.53;;
6109;SDS011;3085;49.444;11.054;2024-01-30T02:51:49;8.40;;;4.57;;
6109;SDS011;3085;49.444;11.054;2024-01-30T02:54:16;8.83;;;4.73;;
6109;SDS011;3085;49.444;11.054;2024-01-30T02:56:44;8.37;;;4.30;;
6109;SDS011;3085;49.444;11.054;2024-01-30T02:59:11;9.60;;;5.17;;
6109;SDS011;3085;49.444;11.054;2024-01-30T03:01:44;9.03;;;4.87;;
6109;SDS011;3085;49.444;11.054;2024-01-30T03:04:11;9.67;;;4.80;;
6109;SDS011;3085;49.444;11.054;2024-01-30T03:06:37;11.53;;;5.40;;
6109;SDS011;3085;49.444;11.054;2024-01-30T03:09:04;9.23;;;4.87;;
6109;SDS011;3085;49.444;11.054;2024-01-30T03:11:31;4.90;;;4.03;;
6109;SDS011;3085;49.444;11.054;2024-01-30T03:13:59;16.50;;;5.43;;
6109;SDS011;3085;49.444;11.054;2024-01-30T03:16:25;12.47;;;5.53;;
6109;SDS011;3085;49.444;11.054;2024-01-30T03:18:52;10.83;;;4.90;;
6109;SDS011;3085;49.444;11.054;2024-01-30T03:21:19;16.57;;;5.40;;
6109;SDS011;3085;49.444;11.054;2024-01-30T03:23:46;7.27;;;5.13;;
6109;SDS011;3085;49.444;11.054;2024-01-30T03:26:13;7.93;;;4.47;;
6109;SDS011;3085;49.444;11.054;2024-01-30T03:28:40;12.07;;;4.53;;
6109;SDS011;3085;49.444;11.054;2024-01-30T03:31:08;9.67;;;4.97;;
6109;SDS011;3085;49.444;11.054;2024-01-30T03:33:36;7.70;;;4.67;;
6109;SDS011;3085;49.444;11.054;2024-01-30T03:36:03;16.23;;;5.40;;
6109;SDS011;3085;49.444;11.054;2024-01-30T03:38:30;12.90;;;5.73;;
6109;SDS011;3085;49.444;11.054;2024-01-30T03:40:57;10.50;;;5.27;;
6109;SDS011;3085;49.444;11.054;2024-01-30T03:43:24;8.97;;;4.80;;
6109;SDS011;3085;49.444;11.054;2024-01-30T03:45:51;12.07;;;5.30;;
6109;SDS011;3085;49.444;11.054;2024-01-30T03:48:19;11.67;;;5.97;;
6109;SDS011;3085;49.444;11.054;2024-01-30T03:50:47;8.67;;;4.97;;
6109;SDS011;3085;49.444;11.054;2024-01-30T03:53:13;14.07;;;5.00;;
6109;SDS011;3085;49.444;11.054;2024-01-30T03:55:40;12.53;;;5.00;;
6109;SDS011;3085;49.444;11.054;2024-01-30T03:58:07;9.13;;;4.87;;
6109;SDS011;3085;49.444;11.054;2024-01-30T04:00:33;10.10;;;5.17;;
6109;SDS011;3085;49.444;11.054;2024-01-30T04:03:00;20.73;;;5.73;;
6109;SDS011;3085;49.444;11.054;2024-01-30T04:05:28;10.77;;;6.20;;
6109;SDS011;3085;49.444;11.054;2024-01-30T04:07:55;8.83;;;5.47;;
6109;SDS011;3085;49.444;11.054;2024-01-30T04:10:22;10.80;;;5.70;;
6109;SDS011;3085;49.444;11.054;2024-01-30T04:12:49;9.67;;;5.10;;
6109;SDS011;3085;49.444;11.054;2024-01-30T04:15:16;7.13;;;4.93;;
6109;SDS011;3085;49.444;11.054;2024-01-30T04:17:43;10.20;;;4.77;;
6109;SDS011;3085;49.444;11.054;2024-01-30T04:20:13;9.27;;;5.10;;
6109;SDS011;3085;49.444;11.054;2024-01-30T04:22:41;12.23;;;4.43;;
6109;SDS011;3085;49.444;11.054;2024-01-30T04:25:09;8.60;;;5.13;;
6109;SDS011;3085;49.444;11.054;2024-01-30T04:27:35;9.07;;;4.77;;
6109;SDS011;3085;49.444;11.054;2024-01-30T04:30:02;10.90;;;5.27;;
6109;SDS011;3085;49.444;11.054;2024-01-30T04:32:29;9.97;;;5.43;;
6109;SDS011;3085;49.444;11.054;2024-01-30T04:34:56;7.40;;;4.53;;
6109;SDS011;3085;49.444;11.054;2024-01-30T04:37:23;8.10;;;4.77;;
6109;SDS011;3085;49.444;11.054;2024-01-30T04:39:51;12.67;;;5.70;;
6109;SDS011;3085;49.444;11.054;2024-01-30T04:42:18;10.17;;;4.73;;
6109;SDS011;3085;49.444;11.054;2024-01-30T04:44:44;8.40;;;5.17;;
6109;SDS011;3085;49.444;11.054;2024-01-30T04:47:11;13.03;;;5.87;;
6109;SDS011;3085;49.444;11.054;2024-01-30T04:49:38;8.80;;;5.73;;
6109;SDS011;3085;49.444;11.054;2024-01-30T04:52:05;8.43;;;5.47;;
6109;SDS011;3085;49.444;11.054;2024-01-30T04:54:32;9.70;;;5.30;;
6109;SDS011;3085;49.444;11.054;2024-01-30T04:57:00;8.23;;;4.83;;
6109;SDS011;3085;49.444;11.054;2024-01-30T04:59:27;6.73;;;4.07;;
6109;SDS011;3085;49.444;11.054;2024-01-30T05:01:54;20.13;;;5.47;;
6109;SDS011;3085;49.444;11.054;2024-01-30T05:04:21;13.00;;;4.83;;
6109;SDS011;3085;49.444;11.054;2024-01-30T05:06:48;11.23;;;5.67;;
6109;SDS011;3085;49.444;11.054;2024-01-30T05:09:14;8.73;;;5.37;;
6109;SDS011;3085;49.444;11.054;2024-01-30T05:11:41;9.97;;;5.63;;
6109;SDS011;3085;49.444;11.054;2024-01-30T05:14:09;13.70;;;6.10;;
6109;SDS011;3085;49.444;11.054;2024-01-30T05:16:37;14.33;;;5.90;;
6109;SDS011;3085;49.444;11.054;2024-01-30T05:19:03;11.00;;;5.30;;
6109;SDS011;3085;49.444;11.054;2024-01-30T05:21:30;9.07;;;5.47;;
6109;SDS011;3085;49.444;11.054;2024-01-30T05:23:57;11.90;;;5.63;;
6109;SDS011;3085;49.444;11.054;2024-01-30T05:26:23;17.60;;;6.20;;
6109;SDS011;3085;49.444;11.054;2024-01-30T05:28:50;12.90;;;6.13;;
6109;SDS011;3085;49.444;11.054;2024-01-30T05:31:18;7.67;;;5.30;;
6109;SDS011;3085;49.444;11.054;2024-01-30T05:33:46;14.37;;;6.80;;
6109;SDS011;3085;49.444;11.054;2024-01-30T05:36:12;12.80;;;5.97;;
6109;SDS011;3085;49.444;11.054;2024-01-30T05:38:39;9.00;;;5.70;;
6109;SDS011;3085;49.444;11.054;2024-01-30T05:41:06;11.13;;;5.60;;
6109;SDS011;3085;49.444;11.054;2024-01-30T05:43:33;16.33;;;6.63;;
6109;SDS011;3085;49.444;11.054;2024-01-30T05:46:00;9.40;;;5.80;;
6109;SDS011;3085;49.444;11.054;2024-01-30T05:48:28;12.60;;;5.67;;
6109;SDS011;3085;49.444;11.054;2024-01-30T05:50:55;14.87;;;6.37;;
6109;SDS011;3085;49.444;11.054;2024-01-30T05:53:22;10.23;;;5.23;;
6109;SDS011;3085;49.444;11.054;2024-01-30T05:55:48;14.83;;;6.43;;
6109;SDS011;3085;49.444;11.054;2024-01-30T05:58:15;12.23;;;7.63;;
6109;SDS011;3085;49.444;11.054;2024-01-30T06:00:42;10.30;;;6.40;;
6109;SDS011;3085;49.444;11.054;2024-01-30T06:03:08;19.30;;;7.67;;
6109;SDS011;3085;49.444;11.054;2024-01-30T06:05:36;12.10;;;6.37;;
6109;SDS011;3085;49.444;11.054;2024-01-30T06:08:06;12.20;;;6.30;;
6109;SDS011;3085;49.444;11.054;2024-01-30T06:10:33;10.37;;;6.33;;
6109;SDS011;3085;49.444;11.054;2024-01-30T06:13:00;14.00;;;7.30;;
6109;SDS011;3085;49.444;11.054;2024-01-30T06:15:26;15.27;;;7.00;;
6109;SDS011;3085;49.444;11.054;2024-01-30T06:17:54;11.03;;;5.63;;
6109;SDS011;3085;49.444;11.054;2024-01-30T06:20:21;13.17;;;6.90;;
6109;SDS011;3085;49.444;11.054;2024-01-30T06:22:49;17.50;;;7.00;;
6109;SDS011;3085;49.444;11.054;2024-01-30T06:25:16;12.87;;;7.07;;
6109;SDS011;3085;49.444;11.054;2024-01-30T06:27:43;12.57;;;6.30;;
6109;SDS011;3085;49.444;11.054;2024-01-30T06:30:10;11.80;;;6.60;;
6109;SDS011;3085;49.444;11.054;2024-01-30T06:32:37;20.00;;;7.70;;
6109;SDS011;3085;49.444;11.054;2024-01-30T06:35:05;17.10;;;7.30;;
6109;SDS011;3085;49.444;11.054;2024-01-30T06:37:33;12.07;;;6.77;;
6109;SDS011;3085;49.444;11.054;2024-01-30T06:40:01;13.57;;;7.33;;
6109;SDS011;3085;49.444;11.054;2024-01-30T06:42:29;16.73;;;6.93;;
6109;SDS011;3085;49.444;11.054;2024-01-30T06:44:56;14.13;;;6.10;;
6109;SDS011;3085;49.444;11.054;2024-01-30T06:47:23;17.53;;;7.73;;
6109;SDS011;3085;49.444;11.054;2024-01-30T06:49:50;12.60;;;6.43;;
6109;SDS011;3085;49.444;11.054;2024-01-30T06:52:16;12.23;;;6.23;;
6109;SDS011;3085;49.444;11.054;2024-01-30T06:54:43;14.53;;;6.97;;
6109;SDS011;3085;49.444;11.054;2024-01-30T06:57:11;13.90;;;6.10;;
6109;SDS011;3085;49.444;11.054;2024-01-30T06:59:39;20.53;;;7.27;;
6109;SDS011;3085;49.444;11.054;2024-01-30T07:02:08;16.23;;;7.40;;
6109;SDS011;3085;49.444;11.054;2024-01-30T07:04:35;19.07;;;7.30;;
6109;SDS011;3085;49.444;11.054;2024-01-30T07:07:02;22.50;;;7.67;;
6109;SDS011;3085;49.444;11.054;2024-01-30T07:09:30;14.83;;;7.90;;
6109;SDS011;3085;49.444;11.054;2024-01-30T07:11:57;14.47;;;8.07;;
6109;SDS011;3085;49.444;11.054;2024-01-30T07:14:25;16.80;;;7.70;;
6109;SDS011;3085;49.444;11.054;2024-01-30T07:16:52;15.60;;;8.13;;
6109;SDS011;3085;49.444;11.054;2024-01-30T07:19:18;18.63;;;7.70;;
6109;SDS011;3085;49.444;11.054;2024-01-30T07:21:45;24.47;;;8.57;;
6109;SDS011;3085;49.444;11.054;2024-01-30T07:24:12;26.87;;;9.83;;
6109;SDS011;3085;49.444;11.054;2024-01-30T07:26:39;15.77;;;8.20;;
6109;SDS011;3085;49.444;11.054;2024-01-30T07:29:06;13.73;;;7.77;;
6109;SDS011;3085;49.444;11.054;2024-01-30T07:31:34;16.90;;;7.93;;
6109;SDS011;3085;49.444;11.054;2024-01-30T07:34:00;15.13;;;7.93;;
6109;SDS011;3085;49.444;11.054;2024-01-30T07:36:28;18.17;;;8.97;;
6109;SDS011;3085;49.444;11.054;2024-01-30T07:38:55;15.63;;;8.77;;
6109;SDS011;3085;49.444;11.054;2024-01-30T07:41:21;15.00;;;8.40;;
6109;SDS011;3085;49.444;11.054;2024-01-30T07:43:50;17.10;;;8.53;;
6109;SDS011;3085;49.444;11.054;2024-01-30T07:46:17;15.03;;;8.20;;
6109;SDS011;3085;49.444;11.054;2024-01-30T07:48:45;17.30;;;8.50;;
6109;SDS011;3085;49.444;11.054;2024-01-30T07:51:12;31.53;;;9.53;;
6109;SDS011;3085;49.444;11.054;2024-01-30T07:53:38;26.93;;;9.67;;
6109;SDS011;3085;49.444;11.054;2024-01-30T07:56:05;17.27;;;8.63;;
6109;SDS011;3085;49.444;11.054;2024-01-30T07:58:32;24.03;;;8.63;;
6109;SDS011;3085;49.444;11.054;2024-01-30T08:00:58;19.70;;;9.50;;
6109;SDS011;3085;49.444;11.054;2024-01-30T08:03:25;22.43;;;9.07;;
6109;SDS011;3085;49.444;11.054;2024-01-30T08:05:53;21.23;;;10.00;;
6109;SDS011;3085;49.444;11.054;2024-01-30T08:08:20;19.47;;;9.17;;
6109;SDS011;3085;49.444;11.054;2024-01-30T08:10:47;21.40;;;8.50;;
6109;SDS011;3085;49.444;11.054;2024-01-30T08:13:14;26.97;;;9.53;;
6109;SDS011;3085;49.444;11.054;2024-01-30T08:15:41;20.60;;;8.60;;
6109;SDS011;3085;49.444;11.054;2024-01-30T08:18:08;20.90;;;9.10;;
6109;SDS011;3085;49.444;11.054;2024-01-30T08:20:35;14.73;;;9.53;;
6109;SDS011;3085;49.444;11.054;2024-01-30T08:23:03;16.70;;;8.90;;
6109;SDS011;3085;49.444;11.054;2024-01-30T08:25:30;18.40;;;8.67;;
6109;SDS011;3085;49.444;11.054;2024-01-30T08:27:57;17.10;;;9.20;;
6109;SDS011;3085;49.444;11.054;2024-01-30T08:30:23;23.83;;;10.40;;
6109;SDS011;3085;49.444;11.054;2024-01-30T08:32:50;22.57;;;9.10;;
6109;SDS011;3085;49.444;11.054;2024-01-30T08:35:16;25.40;;;10.20;;
6109;SDS011;3085;49.444;11.054;2024-01-30T08:37:43;18.93;;;9.00;;
6109;SDS011;3085;49.444;11.054;2024-01-30T08:40:11;21.03;;;8.70;;
6109;SDS011;3085;49.444;11.054;2024-01-30T08:42:38;18.57;;;9.07;;
6109;SDS011;3085;49.444;11.054;2024-01-30T08:45:05;17.60;;;9.07;;
6109;SDS011;3085;49.444;11.054;2024-01-30T08:47:33;22.83;;;10.90;;
6109;SDS011;3085;49.444;11.054;2024-01-30T08:50:00;18.70;;;9.50;;
6109;SDS011;3085;49.444;11.054;2024-01-30T08:52:26;18.13;;;9.40;;
6109;SDS011;3085;49.444;11.054;2024-01-30T08:54:53;18.77;;;8.70;;
6109;SDS011;3085;49.444;11.054;2024-01-30T08:57:21;18.10;;;9.17;;
6109;SDS011;3085;49.444;11.054;2024-01-30T08:59:48;22.10;;;10.10;;
6109;SDS011;3085;49.444;11.054;2024-01-30T09:02:14;29.40;;;9.80;;
6109;SDS011;3085;49.444;11.054;2024-01-30T09:04:43;19.03;;;9.07;;
6109;SDS011;3085;49.444;11.054;2024-01-30T09:07:09;22.90;;;9.60;;
6109;SDS011;3085;49.444;11.054;2024-01-30T09:09:38;24.27;;;10.50;;
6109;SDS011;3085;49.444;11.054;2024-01-30T09:12:06;26.30;;;10.03;;
6109;SDS011;3085;49.444;11.054;2024-01-30T09:14:36;19.07;;;8.50;;
6109;SDS011;3085;49.444;11.054;2024-01-30T09:17:03;19.83;;;9.00;;
6109;SDS011;3085;49.444;11.054;2024-01-30T09:19:30;13.63;;;8.23;;
6109;SDS011;3085;49.444;11.054;2024-01-30T09:21:57;21.77;;;9.00;;
6109;SDS011;3085;49.444;11.054;2024-01-30T09:24:24;23.30;;;10.60;;
6109;SDS011;3085;49.444;11.054;2024-01-30T09:26:52;19.60;;;8.67;;
6109;SDS011;3085;49.444;11.054;2024-01-30T09:29:19;15.57;;;8.30;;
6109;SDS011;3085;49.444;11.054;2024-01-30T09:31:47;17.00;;;9.57;;
6109;SDS011;3085;49.444;11.054;2024-01-30T09:34:12;15.77;;;8.70;;
6109;SDS011;3085;49.444;11.054;2024-01-30T09:36:39;20.13;;;8.87;;
6109;SDS011;3085;49.444;11.054;2024-01-30T09:39:06;17.83;;;9.77;;
6109;SDS011;3085;49.444;11.054;2024-01-30T09:41:32;17.47;;;8.33;;
6109;SDS011;3085;49.444;11.054;2024-01-30T09:44:07;27.27;;;9.93;;
6109;SDS011;3085;49.444;11.054;2024-01-30T09:46:35;17.13;;;8.80;;
6109;SDS011;3085;49.444;11.054;2024-01-30T09:49:03;19.20;;;8.50;;
6109;SDS011;3085;49.444;11.054;2024-01-30T09:51:32;18.90;;;9.03;;
6109;SDS011;3085;49.444;11.054;2024-01-30T09:54:01;34.83;;;9.87;;
6109;SDS011;3085;49.444;11.054;2024-01-30T09:56:28;22.50;;;9.60;;
6109;SDS011;3085;49.444;11.054;2024-01-30T09:58:55;17.37;;;8.57;;
6109;SDS011;3085;49.444;11.054;2024-01-30T10:01:22;22.30;;;9.60;;
6109;SDS011;3085;49.444;11.054;2024-01-30T10:03:50;19.17;;;9.07;;
6109;SDS011;3085;49.444;11.054;2024-01-30T10:06:19;23.13;;;9.17;;
6109;SDS011;3085;49.444;11.054;2024-01-30T10:08:47;23.10;;;8.67;;
6109;SDS011;3085;49.444;11.054;2024-01-30T10:11:14;15.30;;;8.50;;
6109;SDS011;3085;49.444;11.054;2024-01-30T10:13:40;18.60;;;8.37;;
6109;SDS011;3085;49.444;11.054;2024-01-30T10:16:07;22.90;;;9.63;;
6109;SDS011;3085;49.444;11.054;2024-01-30T10:18:34;15.33;;;7.93;;
6109;SDS011;3085;49.444;11.054;2024-01-30T10:21:00;16.37;;;8.23;;
6109;SDS011;3085;49.444;11.054;2024-01-30T10:23:29;22.27;;;10.30;;
6109;SDS011;3085;49.444;11.054;2024-01-30T10:25:56;14.10;;;8.10;;
6109;SDS011;3085;49.444;11.054;2024-01-30T10:28:23;17.80;;;8.07;;
6109;SDS011;3085;49.444;11.054;2024-01-30T10:30:57;15.30;;;7.90;;
6109;SDS011;3085;49.444;11.054;2024-01-30T10:33:25;16.83;;;9.30;;
6109;SDS011;3085;49.444;11.054;2024-01-30T10:35:53;16.07;;;8.90;;
6109;SDS011;3085;49.444;11.054;2024-01-30T10:38:21;14.30;;;8.20;;
6109;SDS011;3085;49.444;11.054;2024-01-30T10:40:55;22.03;;;8.63;;
6109;SDS011;3085;49.444;11.054;2024-01-30T10:43:23;17.40;;;8.03;;
6109;SDS011;3085;49.444;11.054;2024-01-30T10:45:56;23.43;;;9.53;;
6109;SDS011;3085;49.444;11.054;2024-01-30T10:48:29;16.27;;;8.00;;
6109;SDS011;3085;49.444;11.054;2024-01-30T10:50:59;14.07;;;8.13;;
6109;SDS011;3085;49.444;11.054;2024-01-30T10:53:27;17.47;;;8.30;;
6109;SDS011;3085;49.444;11.054;2024-01-30T10:55:57;21.30;;;8.70;;
6109;SDS011;3085;49.444;11.054;2024-01-30T10:58:25;19.97;;;9.20;;
6109;SDS011;3085;49.444;11.054;2024-01-30T11:00:53;16.37;;;8.07;;
6109;SDS011;3085;49.444;11.054;2024-01-30T11:03:21;20.20;;;9.27;;
6109;SDS011;3085;49.444;11.054;2024-01-30T11:05:48;21.00;;;8.60;;
6109;SDS011;3085;49.444;11.054;2024-01-30T11:08:22;14.47;;;8.30;;
6109;SDS011;3085;49.444;11.054;2024-01-30T11:10:49;14.93;;;7.90;;
6109;SDS011;3085;49.444;11.054;2024-01-30T11:13:21;16.23;;;8.33;;
6109;SDS011;3085;49.444;11.054;2024-01-30T11:15:48;25.70;;;9.07;;
6109;SDS011;3085;49.444;11.054;2024-01-30T11:18:22;16.83;;;8.50;;
6109;SDS011;3085;49.444;11.054;2024-01-30T11:20:49;13.70;;;7.70;;
6109;SDS011;3085;49.444;11.054;2024-01-30T11:23:16;18.00;;;8.97;;
6109;SDS011;3085;49.444;11.054;2024-01-30T11:25:43;20.57;;;9.63;;
6109;SDS011;3085;49.444;11.054;2024-01-30T11:28:12;15.73;;;8.73;;
6109;SDS011;3085;49.444;11.054;2024-01-30T11:30:42;30.23;;;8.13;;
6109;SDS011;3085;49.444;11.054;2024-01-30T11:33:09;16.07;;;7.57;;
6109;SDS011;3085;49.444;11.054;2024-01-30T11:35:37;13.90;;;8.00;;
6109;SDS011;3085;49.444;11.054;2024-01-30T11:38:05;15.83;;;8.20;;
6109;SDS011;3085;49.444;11.054;2024-01-30T11:40:33;17.93;;;8.80;;
6109;SDS011;3085;49.444;11.054;2024-01-30T11:43:01;16.67;;;8.20;;
6109;SDS011;3085;49.444;11.054;2024-01-30T11:45:29;14.77;;;7.70;;
6109;SDS011;3085;49.444;11.054;2024-01-30T11:47:58;19.50;;;8.60;;
6109;SDS011;3085;49.444;11.054;2024-01-30T11:50:28;21.60;;;9.50;;
6109;SDS011;3085;49.444;11.054;2024-01-30T11:52:55;12.60;;;6.80;;
6109;SDS011;3085;49.444;11.054;2024-01-30T11:55:22;16.50;;;7.90;;
6109;SDS011;3085;49.444;11.054;2024-01-30T11:57:49;17.10;;;6.57;;
6109;SDS011;3085;49.444;11.054;2024-01-30T12:00:17;17.57;;;8.40;;
6109;SDS011;3085;49.444;11.054;2024-01-30T12:02:48;15.13;;;8.20;;
6109;SDS011;3085;49.444;11.054;2024-01-30T12:05:18;16.63;;;6.97;;
6109;SDS011;3085;49.444;11.054;2024-01-30T12:07:45;22.57;;;7.97;;
6109;SDS011;3085;49.444;11.054;2024-01-30T12:10:12;15.03;;;6.83;;
6109;SDS011;3085;49.444;11.054;2024-01-30T12:12:40;12.80;;;6.93;;
6109;SDS011;3085;49.444;11.054;2024-01-30T12:15:09;15.33;;;6.80;;
6109;SDS011;3085;49.444;11.054;2024-01-30T12:17:36;16.57;;;7.87;;
6109;SDS011;3085;49.444;11.054;2024-01-30T12:20:04;16.10;;;6.60;;
6109;SDS011;3085;49.444;11.054;2024-01-30T12:22:33;12.90;;;7.70;;
6109;SDS011;3085;49.444;11.054;2024-01-30T12:25:02;17.07;;;7.90;;
6109;SDS011;3085;49.444;11.054;2024-01-30T12:27:29;11.70;;;6.73;;
6109;SDS011;3085;49.444;11.054;2024-01-30T12:29:56;18.20;;;8.23;;
6109;SDS011;3085;49.444;11.054;2024-01-30T12:32:23;15.20;;;7.03;;
6109;SDS011;3085;49.444;11.054;2024-01-30T12:34:50;15.80;;;6.80;;
6109;SDS011;3085;49.444;11.054;2024-01-30T12:37:16;17.27;;;8.40;;
6109;SDS011;3085;49.444;11.054;2024-01-30T12:39:48;15.00;;;6.73;;
6109;SDS011;3085;49.444;11.054;2024-01-30T12:42:15;13.43;;;7.13;;
6109;SDS011;3085;49.444;11.054;2024-01-30T12:44:42;12.60;;;7.07;;
6109;SDS011;3085;49.444;11.054;2024-01-30T12:47:09;13.57;;;6.30;;
6109;SDS011;3085;49.444;11.054;2024-01-30T12:49:36;11.60;;;6.60;;
6109;SDS011;3085;49.444;11.054;2024-01-30T12:52:02;15.40;;;8.10;;
6109;SDS011;3085;49.444;11.054;2024-01-30T12:54:30;11.97;;;7.03;;
6109;SDS011;3085;49.444;11.054;2024-01-30T12:56:58;15.70;;;7.57;;
6109;SDS011;3085;49.444;11.054;2024-01-30T12:59:25;16.50;;;7.40;;
6109;SDS011;3085;49.444;11.054;2024-01-30T13:01:51;16.90;;;7.53;;
6109;SDS011;3085;49.444;11.054;2024-01-30T13:04:18;12.33;;;6.63;;
6109;SDS011;3085;49.444;11.054;2024-01-30T13:06:45;12.13;;;6.80;;
6109;SDS011;3085;49.444;11.054;2024-01-30T13:09:11;14.03;;;6.90;;
6109;SDS011;3085;49.444;11.054;2024-01-30T13:11:38;15.63;;;8.33;;
6109;SDS011;3085;49.444;11.054;2024-01-30T13:14:06;14.77;;;7.13;;
6109;SDS011;3085;49.444;11.054;2024-01-30T13:16:33;14.17;;;7.50;;
6109;SDS011;3085;49.444;11.054;2024-01-30T13:18:59;17.80;;;7.17;;
6109;SDS011;3085;49.444;11.054;2024-01-30T13:21:27;14.13;;;6.30;;
6109;SDS011;3085;49.444;11.054;2024-01-30T13:23:53;19.10;;;7.80;;
6109;SDS011;3085;49.444;11.054;2024-01-30T13:26:20;20.47;;;7.83;;
6109;SDS011;3085;49.444;11.054;2024-01-30T13:28:47;15.60;;;7.70;;
6109;SDS011;3085;49.444;11.054;2024-01-30T13:31:15;12.53;;;6.57;;
6109;SDS011;3085;49.444;11.054;2024-01-30T13:33:42;30.93;;;8.10;;
6109;SDS011;3085;49.444;11.054;2024-01-30T13:36:09;15.73;;;7.63;;
6109;SDS011;3085;49.444;11.054;2024-01-30T13:38:37;22.43;;;10.50;;
6109;SDS011;3085;49.444;11.054;2024-01-30T13:41:04;32.67;;;9.80;;
6109;SDS011;3085;49.444;11.054;2024-01-30T13:43:31;15.93;;;8.27;;
6109;SDS011;3085;49.444;11.054;2024-01-30T13:45:57;20.87;;;8.53;;
6109;SDS011;3085;49.444;11.054;2024-01-30T13:48:26;14.87;;;8.23;;
6109;SDS011;3085;49.444;11.054;2024-01-30T13:50:53;18.50;;;8.70;;
6109;SDS011;3085;49.444;11.054;2024-01-30T13:53:20;13.37;;;7.53;;
6109;SDS011;3085;49.444;11.054;2024-01-30T13:55:47;15.80;;;7.17;;
6109;SDS011;3085;49.444;11.054;2024-01-30T13:58:14;18.77;;;7.03;;
6109;SDS011;3085;49.444;11.054;2024-01-30T14:00:40;12.27;;;6.27;;
6109;SDS011;3085;49.444;11.054;2024-01-30T14:03:07;14.53;;;7.67;;
6109;SDS011;3085;49.444;11.054;2024-01-30T14:05:35;17.57;;;7.03;;
6109;SDS011;3085;49.444;11.054;2024-01-30T14:08:02;11.37;;;6.60;;
6109;SDS011;3085;49.444;11.054;2024-01-30T14:10:30;19.83;;;8.33;;
6109;SDS011;3085;49.444;11.054;2024-01-30T14:12:57;13.33;;;7.00;;
6109;SDS011;3085;49.444;11.054;2024-01-30T14:15:23;16.57;;;7.20;;
6109;SDS011;3085;49.444;11.054;2024-01-30T14:17:50;18.07;;;6.40;;
6109;SDS011;3085;49.444;11.054;2024-01-30T14:20:17;15.47;;;7.77;;
6109;SDS011;3085;49.444;11.054;2024-01-30T14:22:45;13.30;;;6.97;;
6109;SDS011;3085;49.444;11.054;2024-01-30T14:25:12;14.37;;;7.70;;
6109;SDS011;3085;49.444;11.054;2024-01-30T14:27:39;17.53;;;8.10;;
6109;SDS011;3085;49.444;11.054;2024-01-30T14:30:06;17.97;;;7.70;;
6109;SDS011;3085;49.444;11.054;2024-01-30T14:32:36;19.17;;;7.53;;
6109;SDS011;3085;49.444;11.054;2024-01-30T14:35:03;14.20;;;6.83;;
6109;SDS011;3085;49.444;11.054;2024-01-30T14:37:31;12.73;;;6.83;;
6109;SDS011;3085;49.444;11.054;2024-01-30T14:39:59;13.93;;;7.20;;
6109;SDS011;3085;49.444;11.054;2024-01-30T14:42:25;12.30;;;6.90;;
6109;SDS011;3085;49.444;11.054;2024-01-30T14:44:56;23.20;;;8.57;;
6109;SDS011;3085;49.444;11.054;2024-01-30T14:47:23;15.40;;;8.67;;
6109;SDS011;3085;49.444;11.054;2024-01-30T14:49:51;18.43;;;7.77;;